createdAt,value
2024-01-20T00:01:16.774Z,25.20
2024-01-20T00:03:44.052Z,25.67
2024-01-20T00:06:11.941Z,28.30
2024-01-20T00:08:39.580Z,24.90
2024-01-20T00:11:06.863Z,25.70
2024-01-20T00:13:34.441Z,21.63
2024-01-20T00:16:01.960Z,27.20
2024-01-20T00:18:29.807Z,20.08
2024-01-20T00:20:57.967Z,25.77
2024-01-20T00:23:25.571Z,25.08
2024-01-20T00:25:52.840Z,20.58
2024-01-20T00:28:20.193Z,22.85
2024-01-20T00:30:47.592Z,23.65
2024-01-20T00:33:14.941Z,20.35
2024-01-20T00:35:44.063Z,27.73
2024-01-20T00:38:11.549Z,22.63
2024-01-20T00:40:38.751Z,20.27
2024-01-20T00:43:06.123Z,22.58
2024-01-20T00:45:33.354Z,19.83
2024-01-20T00:48:00.638Z,23.75
2024-01-20T00:50:27.968Z,31.80
2024-01-20T00:52:55.441Z,26.38
2024-01-20T00:55:22.595Z,21.77
2024-01-20T00:57:49.848Z,21.92
2024-01-20T01:00:17.236Z,21.25
2024-01-20T01:02:44.587Z,23.85
2024-01-20T01:05:11.904Z,21.10
2024-01-20T01:07:39.502Z,18.87
2024-01-20T01:10:10.401Z,21.87
2024-01-20T01:12:37.676Z,22.90
2024-01-20T01:15:06.162Z,23.17
2024-01-20T01:17:34.469Z,26.02
2024-01-20T01:20:02.220Z,23.42
2024-01-20T01:22:29.608Z,22.75
2024-01-20T01:24:56.729Z,21.30
2024-01-20T01:27:23.970Z,17.95
2024-01-20T01:29:51.409Z,15.52
2024-01-20T01:32:19.630Z,18.27
2024-01-20T01:34:47.060Z,17.83
2024-01-20T01:37:14.314Z,13.65
2024-01-20T01:39:44.271Z,15.25
2024-01-20T01:42:11.655Z,17.42
2024-01-20T01:44:38.921Z,12.80
2024-01-20T01:47:06.604Z,13.00
2024-01-20T01:49:34.042Z,14.18
2024-01-20T01:52:01.562Z,15.63
2024-01-20T01:54:29.003Z,16.83
2024-01-20T01:57:01.481Z,11.77
2024-01-20T01:59:32.890Z,16.98
2024-01-20T02:02:00.172Z,14.82
2024-01-20T02:04:27.663Z,15.82
2024-01-20T02:06:55.084Z,15.40
2024-01-20T02:09:22.811Z,19.23
2024-01-20T02:11:50.816Z,26.67
2024-01-20T02:14:20.024Z,28.73
2024-01-20T02:16:47.463Z,19.50
2024-01-20T02:19:14.958Z,21.38
2024-01-20T02:21:42.727Z,14.82
2024-01-20T02:24:11.066Z,15.40
2024-01-20T02:26:38.258Z,17.42
2024-01-20T02:29:05.530Z,15.07
2024-01-20T02:31:32.779Z,16.00
2024-01-20T02:34:01.507Z,15.30
2024-01-20T02:36:29.117Z,15.73
2024-01-20T02:38:58.277Z,17.98
2024-01-20T02:41:25.637Z,13.25
2024-01-20T02:43:52.797Z,14.48
2024-01-20T02:46:20.000Z,13.77
2024-01-20T02:48:47.297Z,15.32
2024-01-20T02:51:14.611Z,13.35
2024-01-20T02:53:41.947Z,13.80
2024-01-20T02:56:09.301Z,12.63
2024-01-20T02:58:36.620Z,12.82
2024-01-20T03:01:03.884Z,12.55
2024-01-20T03:03:31.448Z,13.48
2024-01-20T03:05:58.680Z,10.30
2024-01-20T03:08:26.065Z,12.82
2024-01-20T03:10:53.321Z,10.43
2024-01-20T03:13:20.497Z,14.05
2024-01-20T03:15:47.850Z,13.98
2024-01-20T03:18:15.232Z,12.57
2024-01-20T03:20:42.675Z,11.40
2024-01-20T03:23:09.990Z,13.77
2024-01-20T03:25:37.339Z,11.32
2024-01-20T03:28:04.807Z,14.27
2024-01-20T03:30:32.309Z,14.00
2024-01-20T03:32:59.809Z,14.23
2024-01-20T03:35:27.388Z,13.52
2024-01-20T03:37:54.533Z,11.75
2024-01-20T03:40:21.762Z,13.65
2024-01-20T03:42:49.126Z,16.38
2024-01-20T03:45:16.465Z,13.48
2024-01-20T03:47:43.755Z,16.60
2024-01-20T03:50:11.538Z,13.57
2024-01-20T03:52:38.975Z,10.82
2024-01-20T03:55:07.438Z,15.20
2024-01-20T03:57:34.770Z,15.20
2024-01-20T04:00:02.012Z,10.10
2024-01-20T04:02:32.263Z,14.32
2024-01-20T04:04:59.623Z,15.57
2024-01-20T04:07:26.888Z,15.23
2024-01-20T04:09:54.258Z,12.02
2024-01-20T04:12:21.585Z,12.27
2024-01-20T04:14:48.760Z,13.25
2024-01-20T04:17:16.101Z,11.98
2024-01-20T04:19:43.389Z,13.70
2024-01-20T04:22:10.814Z,13.17
2024-01-20T04:24:38.245Z,12.02
2024-01-20T04:27:05.820Z,17.33
2024-01-20T04:29:33.515Z,14.23
2024-01-20T04:32:00.735Z,19.75
2024-01-20T04:34:28.064Z,12.48
2024-01-20T04:36:55.327Z,13.95
2024-01-20T04:39:22.653Z,14.90
2024-01-20T04:41:50.145Z,14.20
2024-01-20T04:44:17.508Z,12.60
2024-01-20T04:46:44.692Z,16.50
2024-01-20T04:49:11.978Z,17.05
2024-01-20T04:51:39.356Z,14.65
2024-01-20T04:54:06.729Z,19.88
2024-01-20T04:56:34.466Z,22.73
2024-01-20T04:59:02.027Z,15.40
2024-01-20T05:01:29.420Z,17.57
2024-01-20T05:03:56.770Z,18.20
2024-01-20T05:06:24.350Z,12.70
2024-01-20T05:08:51.772Z,14.20
2024-01-20T05:11:19.090Z,14.63
2024-01-20T05:13:46.503Z,19.33
2024-01-20T05:16:13.652Z,13.30
2024-01-20T05:18:41.027Z,18.33
2024-01-20T05:21:14.354Z,17.02
2024-01-20T05:23:42.091Z,15.02
2024-01-20T05:26:09.326Z,16.15
2024-01-20T05:28:36.546Z,14.40
2024-01-20T05:31:03.788Z,15.60
2024-01-20T05:33:31.146Z,15.13
2024-01-20T05:35:59.217Z,15.88
2024-01-20T05:38:26.604Z,14.18
2024-01-20T05:40:53.806Z,20.75
2024-01-20T05:43:21.022Z,17.23
2024-01-20T05:45:48.313Z,15.95
2024-01-20T05:48:15.617Z,11.98
2024-01-20T05:50:43.038Z,17.67
2024-01-20T05:53:10.207Z,17.50
2024-01-20T05:55:37.780Z,15.38
2024-01-20T05:58:05.076Z,17.92
2024-01-20T06:00:32.573Z,20.10
2024-01-20T06:02:59.857Z,17.33
2024-01-20T06:05:27.269Z,16.33
2024-01-20T06:07:54.546Z,17.17
2024-01-20T06:10:21.837Z,14.65
2024-01-20T06:12:49.081Z,18.35
2024-01-20T06:15:16.674Z,18.52
2024-01-20T06:17:43.952Z,20.43
2024-01-20T06:20:11.609Z,21.23
2024-01-20T06:22:40.555Z,17.83
2024-01-20T06:25:08.152Z,20.15
2024-01-20T06:27:35.454Z,18.73
2024-01-20T06:30:02.886Z,20.00
2024-01-20T06:32:30.183Z,20.25
2024-01-20T06:34:57.467Z,20.08
2024-01-20T06:37:24.728Z,20.80
2024-01-20T06:39:51.911Z,15.55
2024-01-20T06:42:19.319Z,21.38
2024-01-20T06:44:46.882Z,20.52
2024-01-20T06:47:14.131Z,21.13
2024-01-20T06:49:42.224Z,20.10
2024-01-20T06:52:11.095Z,18.63
2024-01-20T06:54:41.153Z,18.20
2024-01-20T06:57:08.827Z,26.50
2024-01-20T06:59:36.005Z,19.52
2024-01-20T07:02:03.395Z,17.75
2024-01-20T07:04:32.375Z,20.23
2024-01-20T07:06:59.699Z,19.08
2024-01-20T07:09:26.934Z,22.70
2024-01-20T07:11:56.806Z,25.20
2024-01-20T07:14:25.122Z,27.15
2024-01-20T07:16:52.394Z,26.63
2024-01-20T07:19:19.695Z,23.60
2024-01-20T07:21:46.921Z,27.90
2024-01-20T07:24:14.415Z,26.77
2024-01-20T07:26:41.938Z,24.30
2024-01-20T07:29:09.594Z,26.45
2024-01-20T07:31:36.780Z,22.73
2024-01-20T07:34:04.290Z,25.42
2024-01-20T07:36:31.613Z,23.83
2024-01-20T07:38:58.910Z,25.73
2024-01-20T07:41:26.122Z,23.20
2024-01-20T07:43:53.397Z,27.75
2024-01-20T07:46:20.604Z,32.08
2024-01-20T07:48:48.146Z,27.23
2024-01-20T07:51:15.623Z,22.47
2024-01-20T07:53:42.759Z,21.92
2024-01-20T07:56:12.315Z,26.83
2024-01-20T07:58:39.800Z,26.92
2024-01-20T08:01:07.065Z,35.58
2024-01-20T08:03:34.354Z,28.50
2024-01-20T08:06:01.793Z,22.90
2024-01-20T08:08:29.122Z,27.97
2024-01-20T08:10:56.390Z,23.35
2024-01-20T08:13:23.583Z,23.58
2024-01-20T08:15:50.859Z,27.52
2024-01-20T08:18:18.362Z,24.67
2024-01-20T08:20:45.849Z,27.73
2024-01-20T08:23:13.093Z,30.58
2024-01-20T08:25:40.944Z,28.63
2024-01-20T08:28:08.122Z,31.25
2024-01-20T08:30:35.565Z,27.70
2024-01-20T08:33:05.491Z,26.98
2024-01-20T08:35:34.370Z,22.95
2024-01-20T08:38:01.516Z,27.30
2024-01-20T08:40:28.784Z,26.27
2024-01-20T08:42:55.954Z,23.33
2024-01-20T08:45:23.254Z,18.88
2024-01-20T08:47:50.513Z,23.08
2024-01-20T08:50:17.867Z,21.80
2024-01-20T08:52:45.059Z,20.02
2024-01-20T08:55:13.726Z,26.73
2024-01-20T08:57:40.870Z,24.27
2024-01-20T09:00:08.748Z,20.50
2024-01-20T09:02:36.228Z,23.08
2024-01-20T09:05:04.133Z,24.63
2024-01-20T09:07:31.309Z,20.48
2024-01-20T09:09:59.798Z,21.77
2024-01-20T09:12:27.124Z,20.98
2024-01-20T09:14:54.550Z,17.30
2024-01-20T09:17:21.915Z,28.10
2024-01-20T09:19:49.324Z,22.25
2024-01-20T09:22:18.240Z,29.70
2024-01-20T09:24:45.584Z,20.98
2024-01-20T09:27:12.903Z,20.92
2024-01-20T09:29:42.614Z,18.08
2024-01-20T09:32:10.101Z,23.77
2024-01-20T09:34:38.992Z,21.05
2024-01-20T09:37:07.750Z,21.83
2024-01-20T09:39:36.407Z,18.08
2024-01-20T09:42:04.268Z,17.70
2024-01-20T09:44:31.880Z,24.20
2024-01-20T09:46:59.256Z,20.50
2024-01-20T09:49:26.776Z,23.35
2024-01-20T09:51:58.306Z,21.77
2024-01-20T09:54:26.914Z,23.92
2024-01-20T09:56:54.543Z,20.27
2024-01-20T09:59:23.843Z,24.97
2024-01-20T10:01:52.706Z,26.63
2024-01-20T10:04:22.983Z,21.30
2024-01-20T10:06:52.932Z,18.92
2024-01-20T10:09:20.308Z,27.13
2024-01-20T10:11:47.668Z,24.90
2024-01-20T10:14:14.904Z,24.38
2024-01-20T10:16:42.138Z,23.20
2024-01-20T10:19:09.534Z,23.70
2024-01-20T10:21:43.923Z,22.27
2024-01-20T10:24:11.322Z,20.50
2024-01-20T10:26:45.209Z,20.40
2024-01-20T10:29:12.495Z,19.20
2024-01-20T10:31:39.807Z,19.05
2024-01-20T10:34:07.180Z,19.70
2024-01-20T10:36:34.430Z,16.90
2024-01-20T10:39:07.396Z,24.45
2024-01-20T10:41:38.119Z,19.67
2024-01-20T10:44:08.815Z,27.83
2024-01-20T10:46:40.697Z,23.48
2024-01-20T10:49:11.852Z,20.30
2024-01-20T10:51:39.460Z,25.45
2024-01-20T10:54:10.190Z,21.07
2024-01-20T10:56:38.051Z,21.98
2024-01-20T10:59:14.133Z,28.43
2024-01-20T11:01:44.314Z,20.35
2024-01-20T11:04:18.514Z,24.77
2024-01-20T11:06:46.038Z,27.52
2024-01-20T11:09:21.972Z,21.70
2024-01-20T11:12:08.933Z,27.92
2024-01-20T11:14:37.028Z,23.90
2024-01-20T11:17:12.523Z,26.15
2024-01-20T11:19:39.997Z,22.33
2024-01-20T11:22:27.365Z,27.13
2024-01-20T11:24:55.930Z,18.38
2024-01-20T11:27:23.354Z,24.98
2024-01-20T11:29:50.507Z,21.90
2024-01-20T11:32:18.281Z,22.45
2024-01-20T11:34:46.287Z,17.65
2024-01-20T11:37:14.706Z,21.83
2024-01-20T11:39:41.997Z,18.63
2024-01-20T11:42:09.997Z,16.70
2024-01-20T11:44:38.048Z,19.13
2024-01-20T11:47:05.524Z,19.83
2024-01-20T11:49:36.218Z,17.38
2024-01-20T11:52:04.028Z,17.60
2024-01-20T11:54:31.279Z,17.97
2024-01-20T11:56:59.636Z,19.98
2024-01-20T11:59:26.902Z,16.67
2024-01-20T12:01:54.116Z,18.50
2024-01-20T12:04:21.829Z,17.58
2024-01-20T12:06:49.640Z,15.02
2024-01-20T12:09:17.779Z,17.85
2024-01-20T12:11:45.929Z,17.92
2024-01-20T12:14:13.200Z,18.27
2024-01-20T12:16:40.608Z,17.17
2024-01-20T12:19:07.954Z,20.45
2024-01-20T12:21:35.452Z,17.13
2024-01-20T12:24:03.085Z,23.00
2024-01-20T12:26:30.767Z,19.45
2024-01-20T12:28:57.961Z,23.83
2024-01-20T12:31:27.229Z,20.98
2024-01-20T12:33:54.554Z,16.80
2024-01-20T12:36:21.842Z,18.33
2024-01-20T12:38:49.160Z,19.55
2024-01-20T12:41:16.835Z,15.35
2024-01-20T12:43:46.757Z,16.25
2024-01-20T12:46:14.058Z,19.60
2024-01-20T12:48:42.923Z,20.63
2024-01-20T12:51:11.054Z,25.83
2024-01-20T12:53:38.913Z,23.65
2024-01-20T12:56:06.505Z,21.48
2024-01-20T12:58:33.761Z,24.77
2024-01-20T13:01:01.155Z,22.75
2024-01-20T13:03:29.798Z,20.95
2024-01-20T13:05:57.074Z,23.42
2024-01-20T13:08:24.286Z,24.08
2024-01-20T13:10:51.575Z,32.40
2024-01-20T13:13:22.292Z,31.02
2024-01-20T13:15:49.689Z,22.95
2024-01-20T13:18:17.458Z,24.67
2024-01-20T13:20:44.868Z,22.40
2024-01-20T13:23:12.109Z,26.75
2024-01-20T13:25:42.169Z,27.98
2024-01-20T13:28:09.503Z,27.05
2024-01-20T13:30:36.722Z,22.92
2024-01-20T13:33:04.306Z,26.67
2024-01-20T13:35:31.575Z,16.40
2024-01-20T13:37:58.678Z,28.63
2024-01-20T13:40:27.060Z,26.90
2024-01-20T13:42:54.312Z,30.00
2024-01-20T13:45:21.598Z,22.25
2024-01-20T13:47:48.938Z,22.63
2024-01-20T13:50:16.219Z,26.42
2024-01-20T13:52:43.544Z,27.05
2024-01-20T13:55:10.822Z,28.55
2024-01-20T13:57:38.113Z,22.42
2024-01-20T14:00:05.970Z,21.05
2024-01-20T14:02:34.926Z,21.85
2024-01-20T14:05:04.205Z,22.98
2024-01-20T14:07:31.671Z,23.60
2024-01-20T14:09:58.902Z,26.27
2024-01-20T14:12:26.221Z,28.48
2024-01-20T14:14:53.585Z,23.88
2024-01-20T14:17:20.885Z,42.70
2024-01-20T14:19:48.238Z,31.50
2024-01-20T14:22:16.167Z,33.25
2024-01-20T14:24:43.416Z,36.13
2024-01-20T14:27:10.661Z,24.33
2024-01-20T14:29:37.966Z,18.85
2024-01-20T14:32:05.554Z,17.30
2024-01-20T14:34:32.942Z,20.90
2024-01-20T14:37:01.707Z,18.90
2024-01-20T14:39:30.089Z,23.17
2024-01-20T14:41:57.277Z,22.83
2024-01-20T14:44:24.817Z,25.70
2024-01-20T14:46:52.383Z,28.33
2024-01-20T14:49:21.228Z,26.33
2024-01-20T14:51:48.589Z,26.87
2024-01-20T14:54:16.103Z,34.25
2024-01-20T14:56:43.333Z,35.67
2024-01-20T14:59:10.862Z,21.60
2024-01-20T15:01:38.429Z,22.17
2024-01-20T15:04:06.928Z,23.58
2024-01-20T15:06:34.379Z,26.42
2024-01-20T15:09:01.896Z,30.27
2024-01-20T15:11:30.297Z,31.63
2024-01-20T15:13:57.462Z,30.33
2024-01-20T15:16:24.937Z,28.95
2024-01-20T15:18:52.069Z,24.50
2024-01-20T15:21:19.411Z,23.73
2024-01-20T15:23:46.584Z,20.35
2024-01-20T15:26:17.012Z,24.17
2024-01-20T15:28:44.489Z,21.45
2024-01-20T15:31:11.700Z,20.52
2024-01-20T15:33:39.068Z,24.67
2024-01-20T15:36:07.099Z,24.20
2024-01-20T15:38:34.847Z,24.65
2024-01-20T15:41:02.177Z,20.30
2024-01-20T15:43:29.693Z,18.80
2024-01-20T15:45:57.079Z,20.98
2024-01-20T15:48:24.446Z,21.70
2024-01-20T15:50:51.761Z,22.65
2024-01-20T15:53:18.963Z,15.50
2024-01-20T15:55:46.207Z,19.85
2024-01-20T15:58:13.457Z,18.15
2024-01-20T16:00:40.749Z,16.83
2024-01-20T16:03:08.304Z,15.02
2024-01-20T16:05:35.718Z,13.27
2024-01-20T16:08:02.898Z,18.15
2024-01-20T16:10:30.043Z,20.88
2024-01-20T16:12:57.461Z,17.77
2024-01-20T16:15:24.664Z,15.40
2024-01-20T16:17:51.907Z,16.55
2024-01-20T16:20:19.223Z,15.15
2024-01-20T16:22:46.460Z,15.68
2024-01-20T16:25:13.803Z,20.38
2024-01-20T16:27:41.132Z,16.10
2024-01-20T16:30:08.986Z,20.88
2024-01-20T16:32:36.427Z,14.45
2024-01-20T16:35:05.072Z,16.63
2024-01-20T16:40:01.615Z,20.05
2024-01-20T16:42:29.531Z,16.27
2024-01-20T16:44:57.227Z,18.70
2024-01-20T16:47:27.490Z,17.08
2024-01-20T16:49:55.439Z,21.85
2024-01-20T16:52:22.774Z,20.65
2024-01-20T16:54:50.455Z,18.30
2024-01-20T16:57:17.842Z,16.95
2024-01-20T16:59:45.238Z,20.13
2024-01-20T17:02:12.723Z,16.38
2024-01-20T17:04:40.437Z,20.13
2024-01-20T17:07:07.703Z,14.20
2024-01-20T17:09:34.953Z,20.10
2024-01-20T17:12:02.410Z,22.85
2024-01-20T17:14:29.567Z,20.40
2024-01-20T17:16:56.774Z,18.55
2024-01-20T17:19:27.748Z,20.05
2024-01-20T17:21:55.247Z,16.27
2024-01-20T17:24:23.202Z,20.80
2024-01-20T17:26:50.435Z,19.30
2024-01-20T17:29:17.643Z,17.70
2024-01-20T17:31:45.002Z,15.77
2024-01-20T17:34:13.644Z,16.33
2024-01-20T17:36:40.967Z,17.00
2024-01-20T17:39:08.466Z,18.98
2024-01-20T17:41:35.638Z,18.77
2024-01-20T17:44:02.888Z,21.55
2024-01-20T17:46:30.143Z,15.85
2024-01-20T17:48:57.421Z,18.20
2024-01-20T17:51:24.738Z,20.38
2024-01-20T17:53:52.107Z,21.95
2024-01-20T17:56:19.211Z,22.75
2024-01-20T17:58:46.546Z,20.63
2024-01-20T18:01:13.812Z,19.35
2024-01-20T18:03:41.249Z,16.70
2024-01-20T18:06:09.356Z,17.60
2024-01-20T18:08:36.676Z,16.15
2024-01-20T18:11:04.003Z,17.42
2024-01-20T18:13:31.423Z,16.42
2024-01-20T18:15:59.613Z,20.88
2024-01-20T18:18:26.877Z,19.05
2024-01-20T18:20:54.060Z,20.92
2024-01-20T18:23:21.228Z,20.13
2024-01-20T18:25:48.530Z,21.25
2024-01-20T18:28:18.790Z,20.85
2024-01-20T18:30:46.540Z,22.08
2024-01-20T18:33:14.077Z,19.92
2024-01-20T18:35:41.368Z,22.23
2024-01-20T18:38:08.816Z,20.40
2024-01-20T18:40:36.045Z,18.40
2024-01-20T18:43:03.428Z,20.90
2024-01-20T18:45:30.637Z,21.85
2024-01-20T18:47:58.155Z,20.27
2024-01-20T18:50:25.605Z,24.17
2024-01-20T18:52:53.490Z,22.67
2024-01-20T18:55:20.650Z,19.63
2024-01-20T18:57:47.978Z,20.73
2024-01-20T19:00:15.420Z,21.33
2024-01-20T19:02:42.978Z,21.38
2024-01-20T19:05:10.764Z,18.60
2024-01-20T19:07:38.145Z,19.37
2024-01-20T19:10:10.987Z,21.48
2024-01-20T19:12:38.781Z,20.58
2024-01-20T19:15:09.220Z,23.50
2024-01-20T19:17:36.913Z,23.40
2024-01-20T19:20:06.126Z,23.13
2024-01-20T19:22:33.306Z,21.73
2024-01-20T19:25:00.578Z,23.83
2024-01-20T19:27:27.803Z,21.63
2024-01-20T19:29:55.029Z,22.98
2024-01-20T19:32:25.404Z,25.67
2024-01-20T19:34:52.754Z,29.10
2024-01-20T19:37:19.912Z,28.48
2024-01-20T19:39:47.213Z,21.38
2024-01-20T19:42:14.594Z,23.00
2024-01-20T19:44:41.905Z,22.73
2024-01-20T19:47:09.168Z,21.45
2024-01-20T19:49:36.779Z,20.15
2024-01-20T19:52:06.683Z,22.00
2024-01-20T19:54:34.880Z,18.73
2024-01-20T19:57:02.105Z,19.60
2024-01-20T19:59:29.431Z,18.50
2024-01-20T20:01:56.600Z,18.08
2024-01-20T20:04:23.882Z,16.45
2024-01-20T20:06:52.126Z,18.20
2024-01-20T20:09:21.432Z,22.27
2024-01-20T20:11:48.937Z,18.17
2024-01-20T20:14:21.566Z,20.40
2024-01-20T20:16:48.921Z,21.10
2024-01-20T20:19:16.206Z,18.00
2024-01-20T20:21:43.568Z,20.55
2024-01-20T20:24:11.654Z,22.20
2024-01-20T20:26:43.007Z,21.60
2024-01-20T20:29:14.376Z,19.73
2024-01-20T20:31:41.826Z,19.52
2024-01-20T20:34:09.548Z,19.63
2024-01-20T20:36:38.856Z,19.27
2024-01-20T20:39:06.830Z,19.05
2024-01-20T20:41:34.839Z,17.88
2024-01-20T20:44:02.048Z,17.70
2024-01-20T20:46:29.339Z,17.33
2024-01-20T20:48:56.531Z,20.40
2024-01-20T20:51:25.134Z,16.15
2024-01-20T20:53:52.358Z,20.80
2024-01-20T20:56:19.798Z,18.20
2024-01-20T20:58:47.200Z,17.85
2024-01-20T21:01:14.426Z,18.45
2024-01-20T21:03:46.258Z,17.63
2024-01-20T21:06:13.901Z,18.23
2024-01-20T21:08:41.345Z,19.90
2024-01-20T21:11:10.257Z,16.65
2024-01-20T21:13:37.502Z,15.00
2024-01-20T21:16:05.119Z,14.48
2024-01-20T21:18:32.564Z,12.73
2024-01-20T21:20:59.781Z,17.23
2024-01-20T21:23:27.181Z,21.48
2024-01-20T21:25:56.479Z,13.98
2024-01-20T21:28:24.667Z,17.35
2024-01-20T21:30:54.891Z,16.35
2024-01-20T21:33:22.863Z,21.73
2024-01-20T21:35:50.228Z,18.55
2024-01-20T21:38:17.476Z,14.93
2024-01-20T21:40:45.845Z,20.55
2024-01-20T21:43:13.484Z,14.73
2024-01-20T21:45:43.804Z,18.47
2024-01-20T21:48:12.480Z,19.20
2024-01-20T21:50:39.874Z,16.40
2024-01-20T21:53:07.112Z,18.55
2024-01-20T21:55:34.471Z,17.73
2024-01-20T21:58:01.997Z,14.38
2024-01-20T22:00:29.321Z,18.23
2024-01-20T22:02:56.961Z,20.33
2024-01-20T22:05:24.657Z,19.55
2024-01-20T22:07:54.095Z,20.73
2024-01-20T22:10:21.265Z,21.67
2024-01-20T22:12:48.555Z,25.48
2024-01-20T22:15:15.886Z,25.65
2024-01-20T22:17:43.052Z,25.55
2024-01-20T22:20:10.921Z,33.05
2024-01-20T22:22:38.099Z,41.78
2024-01-20T22:25:07.610Z,36.72
2024-01-20T22:27:35.101Z,30.20
2024-01-20T22:30:02.406Z,31.77
2024-01-20T22:32:29.745Z,31.67
2024-01-20T22:34:57.643Z,32.50
2024-01-20T22:37:26.308Z,29.08
2024-01-20T22:39:54.306Z,30.00
2024-01-20T22:42:21.571Z,35.65
2024-01-20T22:44:49.083Z,33.35
2024-01-20T22:47:16.615Z,34.77
2024-01-20T22:49:44.320Z,38.85
2024-01-20T22:52:11.781Z,33.40
2024-01-20T22:54:39.131Z,37.55
2024-01-20T22:57:07.719Z,46.15
2024-01-20T23:02:01.990Z,40.83
2024-01-20T23:04:29.435Z,42.15
2024-01-20T23:06:57.016Z,46.10
2024-01-20T23:09:27.585Z,42.65
2024-01-20T23:11:55.505Z,61.40
2024-01-20T23:14:22.730Z,54.90
2024-01-20T23:16:51.508Z,52.83
2024-01-20T23:19:18.898Z,57.72
2024-01-20T23:21:46.236Z,54.03
2024-01-20T23:24:13.452Z,55.42
2024-01-20T23:26:43.549Z,58.42
2024-01-20T23:29:10.954Z,61.60
2024-01-20T23:31:38.975Z,60.50
2024-01-20T23:34:06.293Z,63.97
2024-01-20T23:36:33.587Z,58.42
2024-01-20T23:39:00.808Z,46.75
2024-01-20T23:41:28.018Z,49.15
2024-01-20T23:43:55.189Z,48.08
2024-01-20T23:46:22.392Z,51.05
2024-01-20T23:48:49.857Z,65.20
2024-01-20T23:51:17.186Z,58.67
2024-01-20T23:53:44.380Z,48.05
2024-01-20T23:56:11.583Z,45.70
2024-01-20T23:58:38.807Z,46.20
